Time;durP1;ratioP1;P1;durP2;ratioP2;P2;SDS_P1;SDS_P2;PMS_P1;PMS_P2;Temp;Humidity;BMP_temperature;BMP_pressure;BME280_temperature;BME280_humidity;BME280_pressure;Samples;Min_cycle;Max_cycle;Signal;HPM_P1;HPM_P2
2021/09/29 06:02:22;;;;;;;66.47;7.70;;;10.30;99.90;;;;;;5024528;23;20044;-77
2021/09/29 06:04:49;;;;;;;26.90;3.38;;;10.30;99.90;;;;;;4914073;29;20048;-77
2021/09/29 06:07:17;;;;;;;15.77;2.38;;;10.30;99.90;;;;;;4913906;29;20401;-79
2021/09/29 06:09:44;;;;;;;17.95;2.17;;;10.20;99.90;;;;;;4914058;29;20080;-77
2021/09/29 06:12:12;;;;;;;13.40;3.80;;;10.20;99.90;;;;;;4913278;29;20098;-77
2021/09/29 06:14:42;;;;;;;10.55;2.20;;;10.20;99.90;;;;;;4913439;29;20048;-77
2021/09/29 06:18:13;;;;;;;12.55;2.67;;;10.10;99.90;;;;;;4897163;29;20092;-77
2021/09/29 06:20:07;;;;;;;13.02;2.88;;;10.10;99.90;;;;;;4908596;29;20096;-86
2021/09/29 06:22:35;;;;;;;13.73;3.50;;;10.10;99.90;;;;;;4914233;29;20092;-76
2021/09/29 06:25:02;;;;;;;13.98;3.28;;;10.10;99.90;;;;;;4913800;29;20134;-77
2021/09/29 06:27:29;;;;;;;14.15;2.67;;;10.10;99.90;;;;;;4912972;29;20052;-77
2021/09/29 06:30:00;;;;;;;12.13;1.88;;;10.10;99.90;;;;;;4913775;29;20044;-77
2021/09/29 06:32:27;;;;;;;19.10;1.88;;;10.10;99.90;;;;;;4913622;29;20439;-79
2021/09/29 06:34:54;;;;;;;16.02;3.22;;;10.10;99.90;;;;;;4913766;29;20104;-79
2021/09/29 06:37:21;;;;;;;33.15;4.85;;;10.10;99.90;;;;;;4913527;29;20051;-77
2021/09/29 06:39:48;;;;;;;108.75;10.43;;;10.20;99.90;;;;;;4914717;29;20103;-77
2021/09/29 06:42:15;;;;;;;23.83;3.10;;;10.20;99.90;;;;;;4912718;29;20048;-77
2021/09/29 06:44:42;;;;;;;17.02;2.45;;;10.30;99.90;;;;;;4913840;29;20048;-77
2021/09/29 06:47:08;;;;;;;17.08;2.15;;;10.30;99.90;;;;;;4913298;29;20044;-77
2021/09/29 06:49:37;;;;;;;87.85;8.20;;;10.40;99.90;;;;;;4897435;29;20501;-76
2021/09/29 06:52:04;;;;;;;57.80;6.93;;;10.50;99.90;;;;;;4913747;29;20074;-78
2021/09/29 06:54:31;;;;;;;229.68;24.75;;;10.50;99.90;;;;;;4912769;29;20052;-76
2021/09/29 06:56:58;;;;;;;47.80;5.57;;;10.60;99.90;;;;;;4913690;29;20457;-76
2021/09/29 06:59:25;;;;;;;28.13;3.83;;;10.60;99.90;;;;;;4913332;29;20052;-76
2021/09/29 07:01:51;;;;;;;39.33;5.32;;;10.70;99.90;;;;;;4913362;29;20076;-77
2021/09/29 07:04:19;;;;;;;18.42;2.58;;;10.70;99.90;;;;;;4912868;29;20425;-77
2021/09/29 07:06:45;;;;;;;13.32;2.22;;;10.80;99.90;;;;;;4914003;29;20103;-76
2021/09/29 07:09:12;;;;;;;16.85;1.70;;;10.80;99.90;;;;;;4913012;29;20080;-76
2021/09/29 07:11:39;;;;;;;18.00;3.05;;;10.90;99.90;;;;;;4913836;29;20044;-76
2021/09/29 07:14:06;;;;;;;10.60;1.80;;;11.00;99.90;;;;;;4913001;29;20520;-76
2021/09/29 07:16:33;;;;;;;16.50;1.80;;;11.00;99.90;;;;;;4913682;29;20112;-77
2021/09/29 07:19:03;;;;;;;11.70;2.28;;;11.10;99.90;;;;;;4896668;29;20050;-77
2021/09/29 07:21:30;;;;;;;18.30;1.75;;;11.10;99.90;;;;;;4912622;29;20063;-77
2021/09/29 07:23:58;;;;;;;8.75;1.60;;;11.20;99.90;;;;;;4913792;29;20058;-78
2021/09/29 07:26:26;;;;;;;13.57;1.80;;;11.30;99.90;;;;;;4912659;29;20172;-78
2021/09/29 07:28:53;;;;;;;16.95;1.73;;;11.30;99.90;;;;;;4913461;29;20072;-76
2021/09/29 07:31:19;;;;;;;17.77;1.98;;;11.40;99.90;;;;;;4912890;29;20048;-77
2021/09/29 07:33:46;;;;;;;15.38;1.55;;;11.50;99.90;;;;;;4912936;29;20581;-77
2021/09/29 07:36:13;;;;;;;15.18;1.73;;;11.60;99.90;;;;;;4911272;29;20048;-77
2021/09/29 07:38:40;;;;;;;10.57;2.17;;;11.70;99.90;;;;;;4914790;29;20501;-79
2021/09/29 07:41:08;;;;;;;10.05;1.35;;;11.70;99.90;;;;;;4915189;29;20059;-77
2021/09/29 07:43:35;;;;;;;9.57;1.70;;;11.90;99.90;;;;;;4915833;29;20051;-76
2021/09/29 07:46:03;;;;;;;18.27;1.92;;;12.00;99.90;;;;;;4916393;29;20111;-77
2021/09/29 07:48:30;;;;;;;22.83;2.67;;;12.10;99.90;;;;;;4914957;29;20084;-76
2021/09/29 07:50:57;;;;;;;12.93;1.60;;;12.20;99.90;;;;;;4915712;29;20075;-75
2021/09/29 07:53:25;;;;;;;13.05;1.70;;;12.30;99.90;;;;;;4915262;29;20044;-76
2021/09/29 07:55:54;;;;;;;10.10;1.30;;;12.40;99.90;;;;;;4916241;29;20119;-76
2021/09/29 07:58:25;;;;;;;14.15;1.77;;;12.50;99.90;;;;;;4915332;29;20473;-76
2021/09/29 08:00:52;;;;;;;19.27;2.15;;;12.50;99.90;;;;;;4916513;29;20052;-76
2021/09/29 08:03:19;;;;;;;32.65;4.30;;;12.60;99.90;;;;;;4915263;29;20052;-76
2021/09/29 08:05:46;;;;;;;17.83;3.20;;;12.70;99.90;;;;;;4915146;29;20527;-76
2021/09/29 08:08:13;;;;;;;15.73;2.00;;;12.80;99.90;;;;;;4915279;29;20103;-76
2021/09/29 08:10:40;;;;;;;18.77;2.60;;;12.90;99.90;;;;;;4915568;29;20513;-76
2021/09/29 08:13:07;;;;;;;19.70;2.53;;;13.00;99.90;;;;;;4915276;29;20425;-76
2021/09/29 08:15:34;;;;;;;9.77;1.40;;;13.10;99.90;;;;;;4891971;29;20064;-76
2021/09/29 08:18:01;;;;;;;16.88;2.17;;;13.20;99.90;;;;;;4912893;29;20049;-76
2021/09/29 08:20:28;;;;;;;10.95;1.38;;;13.30;99.90;;;;;;4914544;29;20095;-76
2021/09/29 08:23:03;;;;;;;9.80;1.00;;;13.50;99.90;;;;;;4915470;29;20044;-76
2021/09/29 08:28:31;;;;;;;10.30;1.58;;;13.60;99.90;;;;;;4914909;29;20103;-76
2021/09/29 08:31:08;;;;;;;8.05;1.30;;;13.70;99.90;;;;;;4915868;29;20087;-76
2021/09/29 08:46:32;;;;;;;9.45;1.30;;;14.50;99.90;;;;;;4914311;29;20052;-76
2021/09/29 08:49:19;;;;;;;11.00;1.42;;;14.70;99.90;;;;;;4910914;29;20134;-75
2021/09/29 08:51:55;;;;;;;8.10;1.42;;;14.70;99.90;;;;;;4910186;29;20068;-76
2021/09/29 09:17:06;;;;;;;7.93;1.30;;;14.20;99.90;;;;;;4893021;29;20610;-76
2021/09/29 09:19:36;;;;;;;14.90;1.60;;;14.20;99.90;;;;;;4878441;29;20147;-76
2021/09/29 09:22:05;;;;;;;6.53;1.00;;;14.30;99.90;;;;;;4893910;29;20041;-76
2021/09/29 09:24:36;;;;;;;8.65;1.35;;;14.40;99.90;;;;;;4893588;29;20529;-76
2021/09/29 09:27:06;;;;;;;10.68;1.40;;;14.50;99.90;;;;;;4893100;29;20068;-76
2021/09/29 09:29:51;;;;;;;11.38;1.67;;;14.50;99.90;;;;;;4892623;29;20060;-76
2021/09/29 09:32:22;;;;;;;6.53;1.00;;;14.70;99.90;;;;;;4892169;29;20049;-76
2021/09/29 09:35:00;;;;;;;8.60;1.40;;;14.70;99.90;;;;;;4911382;29;20123;-76
2021/09/29 09:37:30;;;;;;;11.80;1.67;;;14.80;99.90;;;;;;4898628;29;20058;-76
2021/09/29 09:40:09;;;;;;;10.85;1.45;;;14.80;99.90;;;;;;4911267;29;20052;-77
2021/09/29 09:42:56;;;;;;;7.05;1.30;;;14.80;99.90;;;;;;4914021;29;20086;-76
2021/09/29 09:45:44;;;;;;;5.93;1.25;;;14.90;99.90;;;;;;4913598;29;20587;-76
2021/09/29 09:48:23;;;;;;;7.55;1.15;;;14.80;99.90;;;;;;4912917;29;20512;-77
2021/09/29 09:51:11;;;;;;;;;;;14.90;99.90;;;;;;4914429;29;20096;-76
2021/09/29 09:53:38;;;;;;;11.55;1.30;;;14.90;99.90;;;;;;4913400;29;19927;-76
2021/09/29 09:56:21;;;;;;;9.85;1.58;;;15.00;99.90;;;;;;4913611;29;20121;-77
2021/09/29 09:58:49;;;;;;;8.80;1.10;;;15.10;99.90;;;;;;4913499;29;20040;-77
2021/09/29 10:01:17;;;;;;;;;;;15.10;99.90;;;;;;4913176;29;20048;-76
2021/09/29 10:03:46;;;;;;;6.28;1.20;;;15.10;99.90;;;;;;4914486;29;19927;-76
2021/09/29 10:06:13;;;;;;;7.60;1.55;;;15.10;99.90;;;;;;4912888;29;20055;-75
2021/09/29 10:08:44;;;;;;;7.38;1.30;;;15.10;99.90;;;;;;4913521;29;20592;-76
2021/09/29 10:11:38;;;;;;;7.80;1.48;;;15.00;99.90;;;;;;4913032;29;20073;-75
2021/09/29 10:22:51;;;;;;;8.45;1.23;;;14.90;99.90;;;;;;4897898;29;20096;-78
2021/09/29 10:28:14;;;;;;;4.95;0.93;;;14.90;99.90;;;;;;4910829;29;20049;-75
2021/09/29 10:30:59;;;;;;;6.40;1.00;;;15.00;99.90;;;;;;4911708;29;20048;-77
2021/09/29 10:33:28;;;;;;;10.43;1.33;;;15.10;99.90;;;;;;4912482;29;20064;-76
2021/09/29 10:36:44;;;;;;;9.05;1.23;;;15.20;99.90;;;;;;4912665;29;20581;-75
2021/09/29 10:50:25;;;;;;;6.35;0.98;;;15.30;99.90;;;;;;4913373;29;20131;-76
2021/09/29 11:02:48;;;;;;;3.38;0.80;;;15.40;99.90;;;;;;4900746;29;20104;-76
2021/09/29 11:04:41;;;;;;;5.07;0.80;;;15.50;99.90;;;;;;4912695;29;20052;-76
2021/09/29 11:29:54;;;;;;;4.20;1.10;;;15.60;99.90;;;;;;4895177;29;20605;-76
2021/09/29 11:32:31;;;;;;;4.95;0.82;;;15.60;99.90;;;;;;4894793;29;20084;-75
2021/09/29 11:35:02;;;;;;;5.10;1.00;;;15.70;99.90;;;;;;4895268;29;20096;-76
2021/09/29 12:11:21;;;;;;;8.45;1.10;;;15.80;99.90;;;;;;4878357;29;20086;-77
2021/09/29 12:14:07;;;;;;;7.43;1.20;;;15.80;99.90;;;;;;4873198;29;20429;-78
2021/09/29 12:16:36;;;;;;;6.22;1.20;;;15.90;99.90;;;;;;4856696;29;20054;-78
2021/09/29 12:19:09;;;;;;;5.97;1.48;;;16.00;99.90;;;;;;4875587;29;20092;-77
2021/09/29 12:21:49;;;;;;;6.95;1.00;;;16.10;99.90;;;;;;4873977;29;20089;-77
2021/09/29 12:24:32;;;;;;;4.97;0.85;;;16.10;99.90;;;;;;4913554;29;20048;-78
2021/09/29 12:27:01;;;;;;;6.45;0.80;;;16.10;99.90;;;;;;4914543;29;20104;-78
2021/09/29 12:29:35;;;;;;;4.20;0.77;;;16.10;99.90;;;;;;4913952;29;20107;-78
2021/09/29 12:32:13;;;;;;;4.35;0.73;;;16.20;99.90;;;;;;4915238;29;20056;-79
2021/09/29 12:35:00;;;;;;;5.10;0.90;;;16.30;99.90;;;;;;4901451;29;20044;-78
2021/09/29 12:37:27;;;;;;;6.57;0.90;;;16.40;99.90;;;;;;4914808;29;20060;-78
2021/09/29 12:39:57;;;;;;;8.40;1.10;;;16.50;99.90;;;;;;4915725;29;20071;-78
2021/09/29 12:42:34;;;;;;;7.15;1.00;;;16.60;99.90;;;;;;4914144;29;20130;-78
2021/09/29 12:45:02;;;;;;;3.15;0.77;;;16.60;99.90;;;;;;4915364;29;20067;-77
2021/09/29 12:49:59;;;;;;;4.03;1.02;;;16.70;99.90;;;;;;4915225;29;20052;-77
2021/09/29 12:52:36;;;;;;;5.65;0.80;;;16.70;99.90;;;;;;4914517;29;20101;-77
2021/09/29 12:55:08;;;;;;;6.43;0.95;;;16.60;99.90;;;;;;4912043;29;20555;-78
2021/09/29 12:57:42;;;;;;;4.47;1.10;;;16.70;99.90;;;;;;4913691;29;20403;-78
2021/09/29 13:00:10;;;;;;;5.15;1.00;;;16.70;99.90;;;;;;4913967;29;20059;-79
2021/09/29 13:02:37;;;;;;;6.32;1.02;;;16.70;99.90;;;;;;4914490;29;20107;-77
2021/09/29 13:05:04;;;;;;;6.72;0.73;;;16.70;99.90;;;;;;4914875;29;20539;-79
2021/09/29 13:07:31;;;;;;;6.18;0.77;;;16.70;99.90;;;;;;4913996;29;20048;-80
2021/09/29 13:09:58;;;;;;;4.68;0.90;;;16.70;99.90;;;;;;4913746;29;20048;-77
2021/09/29 13:12:26;;;;;;;5.28;0.90;;;16.70;99.90;;;;;;4912042;29;20055;-78
2021/09/29 13:14:52;;;;;;;6.70;0.80;;;16.70;99.90;;;;;;4908039;29;20055;-78
2021/09/29 13:17:20;;;;;;;4.75;0.90;;;16.60;99.90;;;;;;4910805;29;20493;-78
2021/09/29 13:20:02;;;;;;;5.40;0.80;;;16.70;99.90;;;;;;4912744;29;20099;-79
2021/09/29 13:22:31;;;;;;;4.88;0.85;;;16.60;99.90;;;;;;4912664;29;20044;-79
2021/09/29 13:38:45;;;;;;;4.97;0.98;;;16.40;99.90;;;;;;4911740;29;20064;-78
2021/09/29 13:41:12;;;;;;;7.47;1.10;;;16.50;99.90;;;;;;4912773;29;20048;-78
2021/09/29 13:43:39;;;;;;;5.15;0.98;;;16.50;99.90;;;;;;4912544;29;20103;-78
2021/09/29 13:46:08;;;;;;;4.60;0.70;;;16.50;99.90;;;;;;4912418;29;20080;-78
2021/09/29 13:48:35;;;;;;;4.00;0.90;;;16.50;99.90;;;;;;4912429;29;20082;-78
2021/09/29 13:51:03;;;;;;;6.97;0.90;;;16.60;99.90;;;;;;4911576;29;20052;-78
2021/09/29 13:53:30;;;;;;;6.13;1.00;;;16.60;99.90;;;;;;4912825;29;20095;-78
2021/09/29 13:56:00;;;;;;;5.35;1.02;;;16.70;99.90;;;;;;4913471;29;20112;-78
2021/09/29 13:58:44;;;;;;;5.72;1.00;;;16.70;99.90;;;;;;4912789;29;20505;-78
2021/09/29 14:32:08;;;;;;;5.70;1.30;;;16.40;99.90;;;;;;4871108;29;20084;-79
2021/09/29 14:34:08;;;;;;;5.88;1.00;;;16.50;99.90;;;;;;4867092;29;20522;-80
2021/09/29 14:36:36;;;;;;;7.72;1.58;;;16.40;99.90;;;;;;4873334;29;20514;-76
2021/09/29 14:39:04;;;;;;;9.07;1.35;;;16.60;99.90;;;;;;4872339;29;20056;-77
2021/09/29 14:41:31;;;;;;;6.03;1.10;;;16.60;99.90;;;;;;4864873;29;20116;-78
2021/09/29 14:43:58;;;;;;;7.85;1.17;;;16.60;99.90;;;;;;4871708;29;20519;-77
2021/09/29 14:46:25;;;;;;;4.55;0.95;;;16.70;99.90;;;;;;4870377;29;20101;-77
2021/09/29 14:48:52;;;;;;;5.95;0.98;;;16.70;99.90;;;;;;4871725;29;20156;-77
2021/09/29 14:51:19;;;;;;;9.73;1.20;;;16.80;99.90;;;;;;4871221;29;20510;-76
2021/09/29 14:53:49;;;;;;;5.43;1.05;;;16.70;99.90;;;;;;4871507;29;20073;-77
2021/09/29 14:56:19;;;;;;;3.85;1.20;;;16.70;99.90;;;;;;4870721;29;20053;-76
2021/09/29 14:58:46;;;;;;;6.90;1.10;;;16.70;99.90;;;;;;4869936;29;20506;-78
2021/09/29 15:01:14;;;;;;;6.63;1.15;;;16.70;99.90;;;;;;4875393;29;20606;-76
2021/09/29 15:03:45;;;;;;;5.18;0.90;;;16.60;99.90;;;;;;4894999;29;20075;-77
2021/09/29 15:06:13;;;;;;;8.63;1.30;;;16.70;99.90;;;;;;4910677;29;20088;-77
2021/09/29 15:08:41;;;;;;;4.63;0.98;;;16.60;99.90;;;;;;4911028;29;20729;-77
2021/09/29 15:11:10;;;;;;;5.15;1.00;;;16.60;99.90;;;;;;4910736;29;20104;-77
2021/09/29 15:13:55;;;;;;;5.78;1.00;;;16.70;99.90;;;;;;4911087;29;20099;-77
2021/09/29 15:16:43;;;;;;;6.32;1.20;;;16.60;99.90;;;;;;4893277;29;20076;-77
2021/09/29 15:19:33;;;;;;;6.88;1.05;;;16.60;99.90;;;;;;4909113;29;20052;-77
2021/09/29 15:48:52;;;;;;;6.25;1.13;;;16.40;99.90;;;;;;4881537;29;20052;-77
2021/09/29 15:51:22;;;;;;;5.38;1.08;;;16.40;99.90;;;;;;4880409;29;20105;-77
2021/09/29 15:56:44;;;;;;;5.50;1.33;;;16.30;99.90;;;;;;4884738;29;20044;-77
2021/09/29 16:05:06;;;;;;;6.80;1.15;;;16.30;99.90;;;;;;4875233;29;20268;-78
2021/09/29 16:32:09;;;;;;;7.65;1.30;;;16.10;99.90;;;;;;4782341;29;20092;-77
2021/09/29 16:34:59;;;;;;;6.70;1.20;;;16.00;99.90;;;;;;4778458;29;20055;-78
2021/09/29 16:37:28;;;;;;;9.07;1.40;;;16.10;99.90;;;;;;4776143;29;20047;-77
2021/09/29 16:39:56;;;;;;;6.40;0.90;;;16.00;99.90;;;;;;4775665;29;20075;-76
2021/09/29 16:42:23;;;;;;;6.53;1.10;;;15.90;99.90;;;;;;4813750;29;20046;-78
2021/09/29 16:44:51;;;;;;;7.10;1.35;;;15.90;99.90;;;;;;4831790;29;20071;-76
2021/09/29 16:47:18;;;;;;;5.50;1.08;;;15.90;99.90;;;;;;4831282;29;20086;-76
2021/09/29 16:49:45;;;;;;;6.63;1.08;;;15.90;99.90;;;;;;4832186;29;20062;-76
2021/09/29 16:54:51;;;;;;;4.22;1.10;;;15.90;99.90;;;;;;4912611;29;20521;-76
2021/09/29 16:57:26;;;;;;;7.90;1.58;;;15.80;99.90;;;;;;4906705;29;20052;-77
2021/09/29 17:00:07;;;;;;;8.20;1.30;;;15.80;99.90;;;;;;4911453;29;20044;-76
2021/09/29 17:02:34;;;;;;;6.85;1.17;;;15.80;99.90;;;;;;4905440;29;20048;-76
2021/09/29 17:05:01;;;;;;;6.60;1.33;;;15.80;99.90;;;;;;4909541;29;20687;-76
2021/09/29 17:07:28;;;;;;;6.15;1.02;;;15.70;99.90;;;;;;4908311;29;20049;-77
2021/09/29 17:09:55;;;;;;;4.15;1.00;;;15.70;99.90;;;;;;4912444;29;20040;-76
2021/09/29 17:12:24;;;;;;;4.03;1.00;;;15.60;99.90;;;;;;4910870;29;20078;-77
2021/09/29 17:14:50;;;;;;;5.40;1.20;;;15.60;99.90;;;;;;4908690;29;20048;-77
2021/09/29 17:17:17;;;;;;;5.22;1.23;;;15.50;99.90;;;;;;4912762;29;20048;-76
2021/09/29 17:19:46;;;;;;;11.13;1.48;;;15.50;99.90;;;;;;4912294;29;20060;-76
2021/09/29 17:22:14;;;;;;;5.70;1.13;;;15.40;99.90;;;;;;4912581;29;20092;-77
2021/09/29 17:24:41;;;;;;;5.30;1.17;;;15.30;99.90;;;;;;4914380;29;20107;-76
2021/09/29 17:27:11;;;;;;;8.88;1.10;;;15.30;99.90;;;;;;4912352;29;20048;-76
2021/09/29 17:29:38;;;;;;;4.57;1.00;;;15.20;99.90;;;;;;4911996;29;20048;-76
2021/09/29 17:32:12;;;;;;;10.23;1.50;;;15.20;99.90;;;;;;4911689;29;20080;-76
2021/09/29 17:34:57;;;;;;;7.65;1.20;;;15.20;99.90;;;;;;4916651;29;20099;-76
2021/09/29 17:37:32;;;;;;;7.70;1.40;;;15.10;99.90;;;;;;4912199;29;20044;-76
2021/09/29 17:53:51;;;;;;;7.60;1.45;;;14.70;99.90;;;;;;4872800;29;20490;-77
2021/09/29 17:56:18;;;;;;;9.57;1.73;;;14.60;99.90;;;;;;4870534;29;20061;-77
2021/09/29 17:58:45;;;;;;;7.15;1.33;;;14.50;99.90;;;;;;4869741;29;20040;-77
2021/09/29 18:01:19;;;;;;;8.00;1.70;;;14.40;99.90;;;;;;4864310;29;20557;-76
2021/09/29 18:03:58;;;;;;;5.85;0.90;;;14.30;99.90;;;;;;4844088;29;20054;-76
2021/09/29 18:06:36;;;;;;;12.77;1.45;;;14.30;99.90;;;;;;4843914;29;20057;-75
2021/09/29 18:09:03;;;;;;;;;;;14.10;99.90;;;;;;4852502;29;20100;-77
2021/09/29 18:11:31;;;;;;;7.57;1.10;;;14.00;99.90;;;;;;4831644;29;19924;-76
2021/09/29 18:13:58;;;;;;;10.23;1.75;;;13.90;99.90;;;;;;4851344;29;20408;-76
2021/09/29 18:16:37;;;;;;;9.27;1.58;;;13.80;99.90;;;;;;4849697;29;20068;-76
2021/09/29 18:19:04;;;;;;;7.22;1.30;;;13.70;99.90;;;;;;4851515;29;20077;-76
2021/09/29 18:21:30;;;;;;;9.52;1.50;;;13.60;99.90;;;;;;4854756;29;20080;-76
2021/09/29 18:23:58;;;;;;;8.13;1.15;;;13.50;99.90;;;;;;4891729;29;20123;-78
2021/09/29 18:26:25;;;;;;;8.18;1.30;;;13.40;99.90;;;;;;4887651;29;20053;-77
2021/09/29 18:28:53;;;;;;;11.88;1.65;;;13.30;99.90;;;;;;4883778;29;20059;-78
2021/09/29 18:31:21;;;;;;;8.65;1.40;;;13.20;99.90;;;;;;4883598;29;20104;-79
2021/09/29 18:33:48;;;;;;;5.75;1.05;;;13.20;99.90;;;;;;4863992;29;20056;-79
2021/09/29 18:36:15;;;;;;;10.68;1.40;;;13.10;99.90;;;;;;4882698;29;20108;-79
2021/09/29 18:38:45;;;;;;;7.05;1.60;;;13.00;99.90;;;;;;4885645;29;20072;-79
2021/09/29 18:41:32;;;;;;;7.32;1.30;;;12.90;99.90;;;;;;4884759;29;20096;-79
2021/09/29 18:44:02;;;;;;;10.43;1.35;;;12.90;99.90;;;;;;4885589;29;20051;-79
2021/09/29 18:46:32;;;;;;;8.73;1.58;;;12.80;99.90;;;;;;4884300;29;20568;-79
2021/09/29 18:49:02;;;;;;;7.40;1.40;;;12.80;99.90;;;;;;4878235;29;20052;-78
2021/09/29 18:51:30;;;;;;;7.45;1.42;;;12.70;99.90;;;;;;4883012;29;20148;-77
2021/09/29 18:54:19;;;;;;;6.33;1.10;;;12.70;99.90;;;;;;4878757;29;20052;-77
2021/09/29 19:07:38;;;;;;;9.68;1.60;;;12.50;99.90;;;;;;4900346;29;20108;-77
2021/09/29 19:10:05;;;;;;;7.90;1.38;;;12.50;99.90;;;;;;4906543;29;20055;-78
2021/09/29 19:12:33;;;;;;;7.15;1.63;;;12.50;99.90;;;;;;4905244;29;20048;-77
2021/09/29 19:15:00;;;;;;;10.35;1.38;;;12.50;99.90;;;;;;4907320;29;20052;-78
2021/09/29 19:17:27;;;;;;;7.15;1.05;;;12.40;99.90;;;;;;4904548;29;20071;-78
2021/09/29 19:19:54;;;;;;;9.93;1.60;;;12.40;99.90;;;;;;4905297;29;20571;-78
2021/09/29 19:22:24;;;;;;;5.60;1.38;;;12.40;99.90;;;;;;4896184;29;20056;-76
2021/09/29 19:24:51;;;;;;;4.78;0.95;;;12.40;99.90;;;;;;4892638;29;20569;-76
2021/09/29 19:27:18;;;;;;;9.55;1.90;;;12.30;99.90;;;;;;4894703;29;20044;-76
2021/09/29 19:29:45;;;;;;;8.95;1.38;;;12.30;99.90;;;;;;4896344;29;20470;-79
2021/09/29 19:32:11;;;;;;;10.57;1.33;;;12.30;99.90;;;;;;4901052;29;20044;-79
2021/09/29 19:34:38;;;;;;;8.88;1.17;;;12.20;99.90;;;;;;4908416;29;20067;-79
2021/09/29 19:37:05;;;;;;;9.57;1.52;;;12.20;99.90;;;;;;4903781;29;20056;-79
2021/09/29 19:39:32;;;;;;;11.70;1.30;;;12.10;99.90;;;;;;4910002;29;20048;-80
2021/09/29 19:41:59;;;;;;;8.60;1.55;;;12.10;99.90;;;;;;4903909;29;20124;-80
2021/09/29 19:44:36;;;;;;;6.47;1.70;;;12.00;99.90;;;;;;4908721;29;20044;-80
2021/09/29 19:47:10;;;;;;;;;;;12.00;99.90;;;;;;4906291;29;20585;-81
2021/09/29 20:09:18;;;;;;;7.72;1.40;;;11.80;99.90;;;;;;4850202;29;20132;-78
2021/09/29 20:11:45;;;;;;;8.93;1.80;;;11.70;99.90;;;;;;4846821;29;20073;-78
2021/09/29 20:14:14;;;;;;;12.52;2.03;;;11.70;99.90;;;;;;4849890;29;20094;-79
2021/09/29 20:16:41;;;;;;;7.28;1.33;;;11.70;99.90;;;;;;4846766;29;20077;-79
2021/09/29 20:19:08;;;;;;;11.23;1.92;;;11.70;99.90;;;;;;4838105;29;20050;-79
2021/09/29 20:21:36;;;;;;;6.47;1.30;;;11.60;99.90;;;;;;4839397;29;20106;-79
2021/09/29 20:24:04;;;;;;;10.50;1.23;;;11.60;99.90;;;;;;4843980;29;20146;-78
2021/09/29 20:26:32;;;;;;;10.68;1.40;;;11.60;99.90;;;;;;4843980;29;20182;-78
2021/09/29 20:28:59;;;;;;;8.90;1.52;;;11.60;99.90;;;;;;4858254;29;20422;-78
2021/09/29 20:31:27;;;;;;;9.77;1.23;;;11.50;99.90;;;;;;4904995;29;20087;-78
2021/09/29 20:42:15;;;;;;;11.43;1.40;;;11.50;99.90;;;;;;4904401;29;20577;-77
2021/09/29 20:44:43;;;;;;;10.52;1.60;;;11.40;99.90;;;;;;4902673;29;20047;-78
2021/09/29 20:47:10;;;;;;;12.65;2.00;;;11.40;99.90;;;;;;4899630;29;20052;-78
2021/09/29 20:49:39;;;;;;;8.75;1.65;;;11.30;99.90;;;;;;4908041;29;20469;-77
2021/09/29 20:52:06;;;;;;;8.55;1.30;;;11.30;99.90;;;;;;4901245;29;20060;-77
2021/09/29 20:54:34;;;;;;;8.10;1.40;;;11.30;99.90;;;;;;4912697;29;20052;-78
2021/09/29 20:57:01;;;;;;;10.55;1.48;;;11.20;99.90;;;;;;4912816;29;20052;-78
2021/09/29 20:59:28;;;;;;;9.10;1.20;;;11.20;99.90;;;;;;4908065;29;20553;-78
2021/09/29 21:01:54;;;;;;;12.38;1.52;;;11.20;99.90;;;;;;4900737;29;20087;-76
2021/09/29 21:04:24;;;;;;;8.05;1.67;;;11.20;99.90;;;;;;4907756;29;20622;-78
2021/09/29 21:06:50;;;;;;;;;;;11.20;99.90;;;;;;4911255;29;20104;-79
2021/09/29 21:09:18;;;;;;;9.93;1.63;;;11.20;99.90;;;;;;4907985;29;19924;-79
2021/09/29 21:11:50;;;;;;;6.50;1.00;;;11.10;99.90;;;;;;4909489;29;20079;-79
2021/09/29 21:14:20;;;;;;;7.25;1.02;;;11.10;99.90;;;;;;4912736;29;20103;-79
2021/09/29 21:19:50;;;;;;;8.48;1.25;;;11.10;99.90;;;;;;4870726;29;20045;-79
2021/09/29 21:22:17;;;;;;;6.22;1.00;;;11.10;99.90;;;;;;4867381;29;20080;-79
2021/09/29 21:24:44;;;;;;;8.85;1.50;;;11.00;99.90;;;;;;4866153;29;20085;-78
2021/09/29 21:27:10;;;;;;;6.50;1.38;;;11.10;99.90;;;;;;4864338;29;20075;-78
2021/09/29 21:29:39;;;;;;;9.40;1.40;;;11.00;99.90;;;;;;4865559;29;20528;-79
2021/09/29 21:32:06;;;;;;;8.52;1.20;;;11.00;99.90;;;;;;4869923;29;20057;-78
2021/09/29 21:34:34;;;;;;;12.38;1.85;;;11.00;99.90;;;;;;4868987;29;20089;-78
2021/09/29 21:37:02;;;;;;;8.65;1.23;;;11.00;99.90;;;;;;4864822;29;20086;-78
2021/09/29 21:42:21;;;;;;;6.70;1.10;;;11.00;99.90;;;;;;4869192;29;20113;-78
2021/09/29 22:01:47;;;;;;;7.07;1.42;;;10.70;99.90;;;;;;4871581;29;20049;-79
2021/09/29 22:18:09;;;;;;;10.57;2.17;;;10.50;99.90;;;;;;4872213;29;20052;-79
2021/09/29 22:23:51;;;;;;;13.38;2.13;;;10.50;99.90;;;;;;4900396;29;20048;-78
